Time;durP1;ratioP1;P1;durP2;ratioP2;P2;SDS_P1;SDS_P2;PMS_P1;PMS_P2;Temp;Humidity;BMP_temperature;BMP_pressure;BME280_temperature;BME280_humidity;BME280_pressure;Samples;Min_cycle;Max_cycle;Signal;HPM_P1;HPM_P2
2023/03/01 00:00:40;;;;;;;13.68;7.50;;;;;;;1.01;59.91;103010.38;5090122;28;20024;-88
2023/03/01 00:03:05;;;;;;;8.82;6.75;;;;;;;0.99;58.25;103012.06;5065443;28;20031;-88
2023/03/01 00:05:31;;;;;;;12.20;6.82;;;;;;;0.86;58.78;102991.63;5085397;28;20487;-89
2023/03/01 00:07:57;;;;;;;14.20;7.38;;;;;;;0.92;59.01;103009.19;5072417;28;20023;-88
2023/03/01 00:10:22;;;;;;;10.18;6.45;;;;;;;0.87;58.97;102992.50;5066730;28;20024;-88
2023/03/01 00:12:47;;;;;;;12.65;7.70;;;;;;;0.94;59.07;103004.94;5072391;28;20054;-88
2023/03/01 00:15:13;;;;;;;11.07;6.65;;;;;;;0.93;58.14;103000.53;5072221;28;20020;-88
2023/03/01 00:17:38;;;;;;;9.20;6.78;;;;;;;0.77;61.11;102980.91;5072736;28;20024;-88
2023/03/01 00:20:08;;;;;;;8.35;6.60;;;;;;;0.86;59.87;103001.16;5069487;28;20673;-88
2023/03/01 00:22:33;;;;;;;11.23;7.15;;;;;;;0.83;58.54;102998.44;5090618;28;20024;-88
2023/03/01 00:24:58;;;;;;;10.32;7.25;;;;;;;0.81;58.69;102992.31;5090586;28;20406;-88
2023/03/01 00:27:24;;;;;;;9.15;6.72;;;;;;;0.82;59.26;102997.56;5090974;28;20365;-88
2023/03/01 00:29:49;;;;;;;10.85;7.55;;;;;;;0.73;59.65;102977.31;5089718;28;20024;-88
2023/03/01 00:32:14;;;;;;;11.23;7.80;;;;;;;0.86;58.91;102999.44;5090441;28;20073;-89
2023/03/01 00:34:40;;;;;;;9.77;7.03;;;;;;;0.74;59.09;102999.00;5090146;28;20024;-89
2023/03/01 00:37:05;;;;;;;10.25;6.35;;;;;;;0.76;59.98;103002.56;5090814;28;20028;-88
2023/03/01 00:39:32;;;;;;;11.07;7.55;;;;;;;0.70;60.64;103005.84;5060473;28;20383;-88
2023/03/01 00:41:57;;;;;;;12.38;8.07;;;;;;;0.68;60.04;102985.78;5071986;28;20467;-88
2023/03/01 00:44:22;;;;;;;10.57;7.13;;;;;;;0.74;59.92;103001.63;5071770;28;20026;-88
2023/03/01 00:46:48;;;;;;;12.27;7.93;;;;;;;0.73;59.72;102998.13;5090728;28;20103;-88
2023/03/01 00:49:13;;;;;;;11.65;7.30;;;;;;;0.72;59.91;103000.69;5062699;28;20013;-88
2023/03/01 00:51:41;;;;;;;10.63;7.13;;;;;;;0.72;60.58;103004.16;5072170;28;20032;-88
2023/03/01 00:54:08;;;;;;;11.15;7.85;;;;;;;0.61;61.97;102986.44;5090034;28;20487;-88
2023/03/01 00:56:33;;;;;;;11.23;7.70;;;;;;;0.59;60.78;102986.34;5090794;28;20035;-89
2023/03/01 00:58:59;;;;;;;12.27;7.38;;;;;;;0.53;59.70;102970.53;5089840;28;20045;-88
2023/03/01 01:01:30;;;;;;;11.80;7.65;;;;;;;0.43;61.69;102956.31;5089729;28;20479;-88
2023/03/01 01:04:02;;;;;;;11.65;7.68;;;;;;;0.45;60.95;102965.03;5071548;28;20031;-88
2023/03/01 01:06:33;;;;;;;9.73;6.65;;;;;;;0.40;60.17;102964.00;5090414;28;20456;-88
2023/03/01 01:08:58;;;;;;;11.20;7.13;;;;;;;0.37;60.22;102970.78;5089584;28;20039;-88
2023/03/01 01:11:25;;;;;;;10.38;6.82;;;;;;;0.41;61.06;102980.47;5071742;28;20036;-88
2023/03/01 01:13:51;;;;;;;9.70;7.30;;;;;;;0.29;62.54;102973.13;5089691;28;20077;-88
2023/03/01 01:16:18;;;;;;;11.32;6.95;;;;;;;0.21;62.94;102971.97;5071766;28;20107;-88
2023/03/01 01:18:44;;;;;;;13.15;8.05;;;;;;;-0.01;62.46;102952.97;5069178;28;20031;-88
2023/03/01 01:21:12;;;;;;;10.93;8.02;;;;;;;0.11;62.96;102972.47;5060731;28;20118;-88
2023/03/01 01:23:38;;;;;;;12.77;7.55;;;;;;;0.02;62.20;102960.00;5089909;28;20106;-89
2023/03/01 01:26:13;;;;;;;12.45;7.28;;;;;;;0.07;61.96;102961.06;5071896;28;20424;-88
2023/03/01 01:28:39;;;;;;;11.00;7.40;;;;;;;0.14;63.31;102962.16;5076287;28;20023;-88
2023/03/01 01:31:05;;;;;;;10.32;7.25;;;;;;;0.15;62.12;102954.44;5089795;28;20556;-88
2023/03/01 01:33:31;;;;;;;12.23;7.68;;;;;;;0.12;62.88;102950.81;5085369;28;20032;-88
2023/03/01 01:35:56;;;;;;;12.00;7.38;;;;;;;0.05;62.50;102947.13;5062613;28;20099;-88
2023/03/01 01:38:21;;;;;;;12.77;7.03;;;;;;;-0.01;62.77;102931.28;5089842;28;20081;-88
2023/03/01 01:40:49;;;;;;;11.80;7.40;;;;;;;0.02;62.45;102947.00;5071498;28;20069;-88
2023/03/01 01:43:30;;;;;;;13.35;7.38;;;;;;;0.04;63.19;102926.25;5071464;28;20050;-88
2023/03/01 01:46:03;;;;;;;12.32;6.82;;;;;;;0.14;61.85;102933.53;5071650;28;20016;-88
2023/03/01 01:48:44;;;;;;;12.38;6.93;;;;;;;0.01;61.77;102940.03;5058602;28;20486;-88
2023/03/01 01:51:13;;;;;;;12.32;7.30;;;;;;;-0.12;64.22;102914.41;5075647;28;20021;-88
2023/03/01 01:53:40;;;;;;;11.85;7.70;;;;;;;-0.10;63.21;102917.94;5089510;28;20032;-88
2023/03/01 01:56:08;;;;;;;12.57;7.30;;;;;;;-0.12;63.36;102919.59;5071247;28;20558;-88
2023/03/01 01:58:34;;;;;;;11.60;6.60;;;;;;;-0.08;62.33;102924.09;5087493;28;20383;-88
2023/03/01 02:01:01;;;;;;;13.57;8.25;;;;;;;-0.11;63.99;102917.06;5088449;28;20024;-88
2023/03/01 02:03:33;;;;;;;11.40;7.32;;;;;;;-0.07;65.72;102900.75;5074742;28;20028;-88
2023/03/01 02:06:06;;;;;;;10.93;7.07;;;;;;;0.09;62.45;102924.69;5093336;28;20559;-89
2023/03/01 02:08:35;;;;;;;9.50;6.63;;;;;;;0.05;61.67;102918.53;5063956;28;20078;-88
2023/03/01 02:11:04;;;;;;;11.02;6.78;;;;;;;-0.08;64.06;102904.19;5061692;28;20474;-88
2023/03/01 02:13:30;;;;;;;12.45;7.35;;;;;;;-0.19;64.27;102894.19;5093382;28;20047;-88
2023/03/01 02:15:56;;;;;;;11.15;6.72;;;;;;;-0.19;65.86;102900.28;5074715;28;20036;-88
2023/03/01 02:18:23;;;;;;;10.10;7.32;;;;;;;-0.17;66.06;102906.44;5093604;28;20022;-88
2023/03/01 02:21:19;;;;;;;11.23;7.45;;;;;;;-0.05;66.11;102913.78;5091532;28;20035;-88
2023/03/01 02:23:45;;;;;;;14.10;7.18;;;;;;;-0.19;64.93;102899.41;5093462;28;20031;-88
2023/03/01 02:26:28;;;;;;;9.63;6.40;;;;;;;-0.17;63.56;102903.84;5093116;28;20024;-88
2023/03/01 02:28:53;;;;;;;10.32;6.47;;;;;;;-0.26;64.38;102893.97;5070937;28;20032;-88
2023/03/01 02:34:06;;;;;;;9.27;6.38;;;;;;;-0.26;62.69;102909.56;5082162;28;20124;-88
2023/03/01 02:36:36;;;;;;;11.82;7.18;;;;;;;-0.31;63.65;102916.31;5092931;28;20032;-88
2023/03/01 02:39:06;;;;;;;13.95;6.95;;;;;;;-0.39;63.59;102894.34;5092937;28;20034;-88
2023/03/01 02:41:36;;;;;;;10.38;6.63;;;;;;;-0.45;63.10;102893.25;5075056;28;20058;-88
2023/03/01 02:44:02;;;;;;;11.15;6.55;;;;;;;-0.41;63.01;102906.41;5093482;28;20024;-88
2023/03/01 02:46:29;;;;;;;9.63;6.60;;;;;;;-0.47;63.45;102897.47;5074411;28;20043;-89
2023/03/01 02:48:56;;;;;;;10.55;6.47;;;;;;;-0.47;63.30;102898.34;5070780;28;20502;-88
2023/03/01 02:51:28;;;;;;;10.55;6.43;;;;;;;-0.49;63.71;102889.63;5089959;28;20054;-88
2023/03/01 02:54:05;;;;;;;;;;;;;;;-0.26;62.22;102909.56;5074982;28;20054;-88
2023/03/01 02:56:31;;;;;;;12.23;6.72;;;;;;;-0.42;63.26;102895.94;5079490;28;19934;-88
2023/03/01 02:59:00;;;;;;;9.32;6.40;;;;;;;-0.47;64.06;102895.75;5085657;28;20451;-88
2023/03/01 03:01:36;;;;;;;11.93;6.38;;;;;;;-0.40;63.91;102908.16;5074060;28;20035;-88
2023/03/01 03:04:11;;;;;;;12.88;6.97;;;;;;;-0.42;64.00;102903.72;5074334;28;20035;-88
2023/03/01 03:06:37;;;;;;;10.27;6.55;;;;;;;-0.49;66.71;102893.94;5092712;28;20095;-88
2023/03/01 03:09:04;;;;;;;12.30;6.75;;;;;;;-0.54;67.84;102902.44;5073899;28;20459;-88
2023/03/01 03:11:30;;;;;;;12.20;7.32;;;;;;;-0.64;66.40;102895.13;5073895;28;20020;-88
2023/03/01 03:13:57;;;;;;;10.50;6.60;;;;;;;-0.60;64.86;102907.41;5092329;28;20536;-88
2023/03/01 03:16:22;;;;;;;10.88;5.90;;;;;;;-0.67;64.54;102894.13;5092110;28;20063;-88
2023/03/01 03:18:49;;;;;;;10.38;6.78;;;;;;;-0.59;64.56;102892.72;5090723;28;20111;-88
2023/03/01 03:21:15;;;;;;;15.55;7.65;;;;;;;-0.70;65.36;102889.72;5064213;28;20020;-87
2023/03/01 03:23:41;;;;;;;11.25;6.93;;;;;;;-0.62;64.90;102906.44;5074473;28;20501;-88
2023/03/01 03:26:06;;;;;;;11.90;7.10;;;;;;;-0.69;66.03;102901.84;5092341;28;20095;-88
2023/03/01 03:28:33;;;;;;;11.02;6.22;;;;;;;-0.64;65.83;102896.84;5089773;28;20021;-87
2023/03/01 03:31:03;;;;;;;11.98;7.07;;;;;;;-0.71;66.53;102897.41;5072543;28;20433;-89
2023/03/01 03:33:29;;;;;;;11.15;6.50;;;;;;;-0.79;65.28;102889.34;5073383;28;20047;-88
2023/03/01 03:35:54;;;;;;;12.20;7.03;;;;;;;-0.78;65.11;102878.13;5073585;28;20513;-88
2023/03/01 03:38:21;;;;;;;10.35;6.45;;;;;;;-0.73;65.94;102884.38;5073481;28;20040;-88
2023/03/01 03:41:01;;;;;;;10.95;6.25;;;;;;;-0.69;66.23;102896.66;5066056;28;20429;-88
2023/03/01 03:43:26;;;;;;;13.25;6.53;;;;;;;-0.83;66.49;102880.53;5073494;28;20031;-87
2023/03/01 03:45:51;;;;;;;8.10;5.47;;;;;;;-0.90;66.94;102880.22;5073115;28;20023;-87
2023/03/01 03:48:18;;;;;;;11.50;6.35;;;;;;;-0.83;66.27;102906.50;5073243;28;20020;-88
2023/03/01 03:50:49;;;;;;;12.65;6.10;;;;;;;-0.90;65.60;102894.09;5067968;28;20024;-87
2023/03/01 03:53:15;;;;;;;12.13;6.63;;;;;;;-1.04;66.53;102877.09;5073218;28;20539;-88
2023/03/01 03:55:40;;;;;;;10.15;5.75;;;;;;;-1.09;67.89;102870.81;5091018;28;20181;-88
2023/03/01 03:58:08;;;;;;;8.63;5.88;;;;;;;-0.98;66.37;102897.19;5073330;28;20027;-88
2023/03/01 04:00:44;;;;;;;9.43;5.63;;;;;;;-0.96;66.50;102899.03;5090784;28;20110;-88
2023/03/01 04:03:11;;;;;;;8.10;5.43;;;;;;;-1.21;68.01;102860.84;5079291;28;20384;-88
2023/03/01 04:05:38;;;;;;;7.28;5.35;;;;;;;-1.08;66.75;102894.22;5059267;28;20055;-88
2023/03/01 04:08:06;;;;;;;9.25;5.32;;;;;;;-1.12;67.67;102879.38;5091569;28;20068;-88
2023/03/01 04:10:45;;;;;;;6.95;5.13;;;;;;;-1.12;67.21;102887.19;5059636;28;20487;-88
2023/03/01 04:13:13;;;;;;;10.55;5.75;;;;;;;-1.21;67.07;102862.53;5091244;28;20028;-87
2023/03/01 04:15:39;;;;;;;11.95;5.60;;;;;;;-1.11;67.76;102875.06;5090624;28;20364;-88
2023/03/01 04:18:05;;;;;;;12.15;5.63;;;;;;;-1.12;67.01;102869.00;5091337;28;20101;-87
2023/03/01 04:20:34;;;;;;;11.52;5.65;;;;;;;-1.13;67.30;102875.00;5090250;28;20028;-88
2023/03/01 04:23:15;;;;;;;10.40;5.70;;;;;;;-1.16;67.68;102859.31;5091092;28;20080;-87
2023/03/01 04:25:45;;;;;;;11.23;5.53;;;;;;;-1.18;67.88;102866.13;5083812;28;20572;-88
2023/03/01 04:28:11;;;;;;;8.50;5.72;;;;;;;-1.21;67.93;102862.53;5066456;28;20024;-88
2023/03/01 04:30:37;;;;;;;9.23;5.22;;;;;;;-1.29;67.43;102850.16;5064733;28;20132;-87
2023/03/01 04:33:07;;;;;;;10.25;5.22;;;;;;;-1.27;68.37;102846.72;5072299;28;20069;-88
2023/03/01 04:35:36;;;;;;;10.32;6.00;;;;;;;-1.21;67.31;102855.66;5090223;28;20107;-88
2023/03/01 04:38:02;;;;;;;9.35;5.45;;;;;;;-1.28;67.02;102838.06;5072452;28;20027;-88
2023/03/01 04:40:27;;;;;;;9.50;5.63;;;;;;;-1.25;68.13;102845.09;5084954;28;20027;-88
2023/03/01 04:42:53;;;;;;;8.48;5.40;;;;;;;-1.38;67.35;102836.78;5072141;28;20487;-88
2023/03/01 04:45:19;;;;;;;10.48;5.88;;;;;;;-1.41;68.60;102834.06;5090236;28;20020;-88
2023/03/01 04:47:47;;;;;;;8.13;5.68;;;;;;;-1.28;67.45;102840.66;5071136;28;20080;-88
2023/03/01 04:50:15;;;;;;;9.48;5.97;;;;;;;-1.28;68.48;102845.84;5059963;28;20020;-87
2023/03/01 04:52:42;;;;;;;11.52;6.35;;;;;;;-1.30;68.52;102847.50;5090122;28;20049;-87
2023/03/01 04:55:08;;;;;;;7.95;5.60;;;;;;;-1.29;68.39;102839.75;5090062;28;20039;-87
2023/03/01 04:57:34;;;;;;;10.90;6.15;;;;;;;-1.47;68.16;102814.78;5090302;28;20024;-88
2023/03/01 05:00:00;;;;;;;9.90;6.05;;;;;;;-1.34;68.22;102843.88;5063177;28;20024;-87
2023/03/01 05:02:26;;;;;;;11.88;5.57;;;;;;;-1.37;67.89;102845.47;5068849;28;20054;-88
2023/03/01 05:04:51;;;;;;;10.57;6.15;;;;;;;-1.44;67.72;102831.38;5072083;28;20020;-88
2023/03/01 05:07:19;;;;;;;10.48;6.50;;;;;;;-1.40;68.53;102840.13;5090524;28;20605;-87
2023/03/01 05:09:47;;;;;;;11.02;6.00;;;;;;;-1.37;68.31;102838.56;5071550;28;20027;-88
2023/03/01 05:12:13;;;;;;;10.75;6.00;;;;;;;-1.52;68.28;102812.00;5071742;28;20020;-87
2023/03/01 05:14:39;;;;;;;9.77;6.30;;;;;;;-1.41;68.20;102828.88;5071543;28;20020;-88
2023/03/01 05:17:04;;;;;;;7.80;5.72;;;;;;;-1.35;68.48;102844.72;5071546;28;20475;-88
2023/03/01 05:19:31;;;;;;;9.65;6.40;;;;;;;-1.35;67.96;102842.13;5071875;28;20122;-87
2023/03/01 05:22:06;;;;;;;12.25;7.30;;;;;;;-1.32;67.98;102841.34;5071568;28;20066;-87
2023/03/01 05:24:33;;;;;;;10.75;6.05;;;;;;;-1.32;67.24;102841.34;5071510;28;20016;-88
2023/03/01 05:26:59;;;;;;;9.52;5.72;;;;;;;-1.33;67.35;102837.88;5086005;28;20100;-87
2023/03/01 05:29:27;;;;;;;9.73;6.30;;;;;;;-1.33;67.17;102826.59;5062568;28;20062;-87
2023/03/01 05:31:57;;;;;;;11.55;6.78;;;;;;;-1.38;67.82;102812.56;5089863;28;20284;-88
2023/03/01 05:34:25;;;;;;;10.38;5.63;;;;;;;-1.39;67.31;102808.22;5071646;28;20063;-87
2023/03/01 05:36:52;;;;;;;11.40;6.05;;;;;;;-1.53;67.13;102786.00;5090558;28;20440;-87
2023/03/01 05:39:19;;;;;;;8.80;5.88;;;;;;;-1.47;69.05;102800.09;5074042;28;20474;-87
2023/03/01 05:41:44;;;;;;;11.32;6.25;;;;;;;-1.41;69.48;102809.84;5073889;28;20035;-87
2023/03/01 05:44:11;;;;;;;10.02;6.50;;;;;;;-1.51;69.59;102805.09;5075291;28;20028;-87
2023/03/01 05:46:36;;;;;;;9.15;5.97;;;;;;;-1.56;69.76;102787.63;5093545;28;20414;-87
2023/03/01 05:49:02;;;;;;;9.52;6.30;;;;;;;-1.55;68.93;102791.13;5093956;28;20020;-88
2023/03/01 05:51:27;;;;;;;11.85;6.53;;;;;;;-1.59;69.88;102794.41;5092149;28;20051;-87
2023/03/01 05:53:52;;;;;;;11.15;6.28;;;;;;;-1.68;69.26;102774.19;5093240;28;20020;-87
2023/03/01 05:56:18;;;;;;;11.30;6.72;;;;;;;-1.81;69.07;102769.31;5093366;28;20490;-87
2023/03/01 05:58:43;;;;;;;11.80;6.50;;;;;;;-1.64;70.11;102799.41;5093564;28;20107;-87
2023/03/01 06:01:12;;;;;;;11.30;6.45;;;;;;;-1.77;68.09;102784.19;5073066;28;20471;-87
2023/03/01 06:03:37;;;;;;;9.77;5.93;;;;;;;-1.76;69.34;102804.09;5074730;28;20035;-87
2023/03/01 06:06:03;;;;;;;11.80;6.97;;;;;;;-1.84;70.33;102803.75;5074936;28;20016;-87
2023/03/01 06:08:28;;;;;;;10.25;7.05;;;;;;;-1.92;69.95;102799.94;5075096;28;20036;-87
2023/03/01 06:10:53;;;;;;;9.80;6.47;;;;;;;-1.87;70.72;102815.69;5084482;28;20024;-87
2023/03/01 06:13:19;;;;;;;9.85;6.82;;;;;;;-2.03;69.86;102783.06;5093135;28;20017;-87
2023/03/01 06:15:44;;;;;;;14.10;6.93;;;;;;;-1.99;70.28;102794.47;5092984;28;20028;-87
2023/03/01 06:18:09;;;;;;;14.57;6.68;;;;;;;-1.99;69.90;102790.16;5075455;28;20016;-87
2023/03/01 06:20:35;;;;;;;11.65;6.38;;;;;;;-2.01;69.83;102783.13;5063082;28;20024;-87
2023/03/01 06:23:00;;;;;;;14.10;7.00;;;;;;;-1.92;70.28;102799.06;5065694;28;20048;-87
2023/03/01 06:25:27;;;;;;;10.98;7.28;;;;;;;-1.92;69.62;102796.47;5074632;28;20027;-87
2023/03/01 06:27:52;;;;;;;11.52;7.00;;;;;;;-1.98;70.78;102788.47;5075258;28;20047;-87
2023/03/01 06:30:20;;;;;;;12.18;6.30;;;;;;;-1.90;69.54;102806.09;5088842;28;20636;-87
2023/03/01 06:32:45;;;;;;;13.60;6.68;;;;;;;-1.87;69.93;102805.34;5092445;28;20032;-87
2023/03/01 06:35:12;;;;;;;11.38;6.80;;;;;;;-1.84;70.12;102813.25;5074143;28;20039;-88
2023/03/01 06:37:38;;;;;;;13.77;6.85;;;;;;;-2.07;70.29;102779.47;5074952;28;20324;-90
2023/03/01 06:40:07;;;;;;;13.45;7.13;;;;;;;-1.96;70.05;102803.28;5073739;28;20023;-87
2023/03/01 06:42:34;;;;;;;12.43;7.53;;;;;;;-1.93;70.89;102805.09;5074192;28;20263;-86
2023/03/01 06:44:59;;;;;;;9.50;6.45;;;;;;;-1.87;70.03;102808.81;5092279;28;20024;-87
2023/03/01 06:47:25;;;;;;;11.45;6.78;;;;;;;-1.87;69.84;102811.41;5092387;28;20030;-87
2023/03/01 06:49:50;;;;;;;11.50;6.57;;;;;;;-1.82;70.95;102814.19;5069904;28;20078;-87
2023/03/01 06:52:15;;;;;;;10.75;6.70;;;;;;;-1.83;70.76;102808.13;5066025;28;20069;-87
2023/03/01 06:54:41;;;;;;;10.95;6.97;;;;;;;-1.78;70.21;102810.03;5091862;28;20127;-87
2023/03/01 06:57:06;;;;;;;10.20;6.35;;;;;;;-1.71;70.76;102800.00;5092830;28;20085;-87
2023/03/01 06:59:31;;;;;;;12.25;8.00;;;;;;;-1.72;69.57;102784.38;5091010;28;20395;-86
2023/03/01 07:01:56;;;;;;;10.43;7.00;;;;;;;-1.56;71.52;102804.91;5084997;28;20032;-87
2023/03/01 07:04:22;;;;;;;12.32;6.97;;;;;;;-1.59;70.63;102779.72;5073888;28;20070;-87
2023/03/01 07:06:54;;;;;;;11.13;7.03;;;;;;;-1.51;70.32;102793.00;5074109;28;20034;-87
2023/03/01 07:09:22;;;;;;;12.43;7.82;;;;;;;-1.44;70.79;102791.56;5073869;28;20035;-87
2023/03/01 07:11:48;;;;;;;13.02;7.32;;;;;;;-1.38;70.40;102794.41;5085132;28;20437;-87
2023/03/01 07:14:13;;;;;;;10.88;7.38;;;;;;;-1.41;70.09;102789.09;5073333;28;20023;-88
2023/03/01 07:16:38;;;;;;;15.48;8.18;;;;;;;-1.36;70.33;102787.56;5073569;28;20028;-87
2023/03/01 07:19:05;;;;;;;12.57;7.68;;;;;;;-1.19;69.91;102802.09;5091940;28;20024;-87
2023/03/01 07:21:30;;;;;;;13.63;7.38;;;;;;;-1.12;69.84;102805.81;5073223;28;20414;-87
2023/03/01 07:23:56;;;;;;;15.63;7.70;;;;;;;-1.12;69.42;102796.34;5073498;28;20023;-87
2023/03/01 07:26:21;;;;;;;15.57;8.48;;;;;;;-1.12;69.29;102791.16;5073519;28;20030;-87
2023/03/01 07:28:46;;;;;;;12.05;7.72;;;;;;;-1.05;69.67;102793.13;5092321;28;20054;-87
2023/03/01 07:31:11;;;;;;;13.45;7.68;;;;;;;-0.95;69.03;102809.06;5073022;28;20039;-88
2023/03/01 07:33:37;;;;;;;13.80;8.00;;;;;;;-0.86;69.01;102814.63;5091462;28;20422;-86
2023/03/01 07:36:04;;;;;;;13.38;8.18;;;;;;;-0.72;68.62;102822.94;5091619;28;20181;-87
2023/03/01 07:38:29;;;;;;;13.68;7.15;;;;;;;-0.64;68.10;102816.31;5073969;28;20379;-86
2023/03/01 07:41:00;;;;;;;13.52;8.32;;;;;;;-0.55;68.52;102814.94;5072871;28;20024;-85
2023/03/01 07:43:26;;;;;;;12.65;7.95;;;;;;;-0.41;68.14;102825.84;5091733;28;20039;-86
2023/03/01 07:45:51;;;;;;;13.80;8.20;;;;;;;-0.35;67.74;102820.00;5072981;28;20043;-86
2023/03/01 07:48:17;;;;;;;13.38;8.73;;;;;;;-0.29;68.42;102815.00;5073707;28;20479;-86
2023/03/01 07:50:42;;;;;;;12.43;8.10;;;;;;;-0.16;68.30;102829.34;5072452;28;20119;-86
2023/03/01 07:53:09;;;;;;;14.85;8.23;;;;;;;-0.11;67.94;102812.19;5073022;28;20221;-86
2023/03/01 07:55:35;;;;;;;13.05;8.05;;;;;;;-0.02;67.42;102821.19;5090672;28;20036;-86
2023/03/01 07:58:00;;;;;;;13.98;8.63;;;;;;;0.06;67.51;102815.38;5091212;28;20031;-86
2023/03/01 08:00:25;;;;;;;13.15;7.72;;;;;;;0.17;67.24;102801.91;5067250;28;20020;-86
2023/03/01 08:02:51;;;;;;;17.55;8.98;;;;;;;0.32;67.32;102811.06;5059355;28;20375;-86
2023/03/01 08:05:16;;;;;;;13.63;8.05;;;;;;;0.45;66.88;102819.31;5090895;28;20019;-87
2023/03/01 08:07:41;;;;;;;11.57;7.93;;;;;;;0.56;66.84;102813.59;5077316;28;20036;-86
2023/03/01 08:10:07;;;;;;;13.15;8.32;;;;;;;0.67;65.96;102804.41;5087086;28;20035;-86
2023/03/01 08:12:33;;;;;;;16.55;8.30;;;;;;;0.74;65.88;102799.44;5089794;28;20028;-86
2023/03/01 08:14:58;;;;;;;14.23;7.40;;;;;;;1.01;64.90;102812.44;5072361;28;20032;-86
2023/03/01 08:17:23;;;;;;;16.73;8.50;;;;;;;1.33;64.87;102812.53;5072585;28;20024;-87
2023/03/01 08:19:48;;;;;;;14.63;8.90;;;;;;;1.68;64.54;102808.34;5071717;28;20023;-86
2023/03/01 08:22:14;;;;;;;13.63;8.27;;;;;;;2.16;62.92;102807.91;5089046;28;20035;-86
2023/03/01 08:24:39;;;;;;;11.88;7.90;;;;;;;2.66;61.74;102802.16;5072695;28;20056;-86
2023/03/01 08:27:05;;;;;;;12.85;8.23;;;;;;;3.38;59.96;102815.13;5072703;28;20067;-86
2023/03/01 08:29:31;;;;;;;15.00;8.38;;;;;;;4.03;58.64;102806.81;5072360;28;20020;-86
2023/03/01 08:31:57;;;;;;;13.65;8.10;;;;;;;4.64;57.54;102792.16;5090370;28;20035;-86
2023/03/01 08:34:22;;;;;;;10.95;7.80;;;;;;;5.20;54.53;102807.84;5061765;28;20069;-86
2023/03/01 08:36:47;;;;;;;11.65;7.13;;;;;;;5.33;54.00;102801.03;5069548;28;20145;-86
2023/03/01 08:39:15;;;;;;;14.82;8.10;;;;;;;5.59;52.84;102796.97;5075508;28;20028;-86
2023/03/01 08:41:41;;;;;;;12.07;7.72;;;;;;;5.89;52.02;102795.56;5087587;28;20606;-86
2023/03/01 08:44:08;;;;;;;11.73;7.63;;;;;;;6.37;51.35;102792.53;5082817;28;20107;-85
2023/03/01 08:46:36;;;;;;;12.80;7.80;;;;;;;6.95;49.04;102775.44;5073704;28;20059;-86
2023/03/01 08:49:05;;;;;;;14.30;6.80;;;;;;;7.41;47.71;102781.81;5092193;28;20020;-86
2023/03/01 08:51:32;;;;;;;10.70;6.75;;;;;;;7.80;46.46;102772.28;5062583;28;20487;-86
2023/03/01 08:53:57;;;;;;;15.00;6.70;;;;;;;8.31;45.22;102774.13;5093411;28;20107;-86
2023/03/01 08:56:23;;;;;;;9.57;6.97;;;;;;;9.09;43.49;102776.69;5090974;28;20552;-85
2023/03/01 08:58:48;;;;;;;9.88;6.82;;;;;;;9.58;42.49;102773.84;5072614;28;20545;-86
2023/03/01 09:01:17;;;;;;;8.68;5.93;;;;;;;10.31;41.28;102774.31;5086749;28;20197;-86
2023/03/01 09:03:43;;;;;;;8.05;5.93;;;;;;;10.90;39.04;102779.00;5073519;28;20016;-86
2023/03/01 09:06:09;;;;;;;8.55;6.68;;;;;;;11.60;38.18;102781.72;5073715;28;20024;-86
2023/03/01 09:08:40;;;;;;;10.52;6.40;;;;;;;12.14;36.73;102772.13;5091508;28;20036;-86
2023/03/01 09:11:07;;;;;;;10.48;6.28;;;;;;;12.68;35.62;102769.47;5079082;28;20034;-86
2023/03/01 09:13:33;;;;;;;9.82;6.18;;;;;;;13.60;34.47;102764.97;5076448;28;20150;-87
2023/03/01 09:16:01;;;;;;;10.82;6.30;;;;;;;14.16;34.16;102756.59;5094352;28;20032;-87
2023/03/01 09:18:27;;;;;;;11.48;7.07;;;;;;;14.56;32.82;102756.50;5096183;28;20032;-86
2023/03/01 09:20:54;;;;;;;9.13;6.25;;;;;;;15.09;32.50;102751.50;5080881;28;20046;-86
2023/03/01 09:23:20;;;;;;;8.75;6.40;;;;;;;15.67;31.20;102754.28;5095758;28;20149;-87
2023/03/01 09:25:46;;;;;;;9.52;5.82;;;;;;;15.53;30.28;102747.53;5095224;28;20031;-87
2023/03/01 09:28:11;;;;;;;6.90;5.90;;;;;;;15.89;30.50;102749.13;5094903;28;20027;-86
2023/03/01 09:30:36;;;;;;;8.02;6.03;;;;;;;16.62;29.08;102741.31;5089151;28;20562;-87
2023/03/01 09:33:02;;;;;;;7.65;5.68;;;;;;;17.24;27.13;102743.53;5070013;28;20012;-88
2023/03/01 09:35:27;;;;;;;9.32;5.82;;;;;;;17.57;27.45;102743.16;5094576;28;20028;-88
2023/03/01 09:37:53;;;;;;;8.93;5.85;;;;;;;17.53;25.12;102734.41;5076462;28;20024;-88
2023/03/01 09:40:21;;;;;;;11.00;5.63;;;;;;;16.75;27.29;102733.78;5095067;28;20054;-87
2023/03/01 09:42:54;;;;;;;7.93;5.75;;;;;;;17.56;26.98;102728.91;5094132;28;20388;-88
2023/03/01 09:45:45;;;;;;;10.35;5.78;;;;;;;17.99;25.92;102729.91;5076073;28;20424;-88
2023/03/01 09:48:17;;;;;;;7.40;5.32;;;;;;;18.36;25.23;102734.56;5094304;28;20024;-89
2023/03/01 09:50:44;;;;;;;8.10;6.03;;;;;;;18.75;24.66;102732.97;5075456;28;20032;-88
2023/03/01 09:53:18;;;;;;;7.75;5.15;;;;;;;18.71;24.69;102724.19;5094042;28;20028;-88
2023/03/01 09:56:05;;;;;;;6.78;5.15;;;;;;;19.15;25.10;102721.28;5072373;28;20048;-88
2023/03/01 09:58:47;;;;;;;8.93;5.55;;;;;;;20.09;23.68;102713.16;5093426;28;20109;-89
2023/03/01 10:01:32;;;;;;;9.77;5.60;;;;;;;19.94;23.96;102718.44;5072844;28;20028;-88
2023/03/01 10:04:39;;;;;;;7.05;5.65;;;;;;;20.21;22.66;102716.19;5093421;28;20285;-88
2023/03/01 10:07:10;;;;;;;8.02;5.45;;;;;;;19.94;22.87;102703.22;5093931;28;20016;-88
2023/03/01 10:09:38;;;;;;;7.18;5.70;;;;;;;19.48;22.90;102700.06;5093252;28;20020;-88
2023/03/01 10:12:18;;;;;;;7.75;5.90;;;;;;;19.80;22.97;102685.09;5074652;28;20548;-88
2023/03/01 10:15:05;;;;;;;8.48;5.80;;;;;;;20.54;22.46;102687.59;5075340;28;20027;-88
2023/03/01 10:17:39;;;;;;;8.13;5.38;;;;;;;21.86;22.00;102685.69;5094164;28;20107;-88
2023/03/01 10:20:57;;;;;;;8.60;5.88;;;;;;;21.82;23.69;102678.75;5075259;28;20047;-88
2023/03/01 10:23:24;;;;;;;10.60;6.30;;;;;;;22.00;20.65;102679.47;5071848;28;20047;-88
2023/03/01 10:26:00;;;;;;;7.65;5.97;;;;;;;21.73;21.54;102672.09;5085018;28;20367;-87
2023/03/01 10:28:34;;;;;;;9.02;6.22;;;;;;;21.69;21.93;102657.06;5074954;28;20024;-88
2023/03/01 10:31:02;;;;;;;9.32;6.20;;;;;;;21.57;21.66;102657.75;5066799;28;20027;-89
2023/03/01 10:33:35;;;;;;;10.65;6.82;;;;;;;22.22;21.22;102663.81;5095002;28;20108;-89
2023/03/01 10:36:01;;;;;;;12.13;5.85;;;;;;;22.00;21.04;102666.88;5095006;28;20021;-89
2023/03/01 10:38:31;;;;;;;8.77;6.63;;;;;;;22.66;20.67;102655.72;5093910;28;20517;-89
2023/03/01 10:40:57;;;;;;;8.88;6.00;;;;;;;22.10;21.15;102665.41;5087700;28;20021;-90
2023/03/01 10:43:26;;;;;;;9.50;6.78;;;;;;;22.86;21.28;102654.44;5091391;28;20031;-89
2023/03/01 10:45:52;;;;;;;12.77;6.13;;;;;;;23.00;20.42;102655.44;5093558;28;20024;-89
2023/03/01 10:48:25;;;;;;;7.60;6.10;;;;;;;23.06;19.99;102647.81;5093550;28;20036;-90
2023/03/01 10:51:00;;;;;;;9.30;5.97;;;;;;;23.23;20.44;102654.81;5092647;28;20417;-90
2023/03/01 10:53:31;;;;;;;8.10;6.03;;;;;;;23.25;20.13;102649.31;5075189;28;20028;-89
2023/03/01 10:56:05;;;;;;;8.38;6.00;;;;;;;23.04;19.15;102655.13;5074277;28;20127;-89
2023/03/01 10:58:31;;;;;;;8.75;6.35;;;;;;;22.43;18.71;102642.78;5074547;28;20391;-90
2023/03/01 11:01:00;;;;;;;7.43;6.07;;;;;;;22.45;18.32;102650.78;5092594;28;20481;-90
2023/03/01 11:03:25;;;;;;;9.45;6.40;;;;;;;22.36;19.91;102655.75;5093239;28;20028;-89
2023/03/01 11:05:54;;;;;;;7.75;6.85;;;;;;;22.20;19.26;102648.72;5075593;28;20035;-90
2023/03/01 11:08:38;;;;;;;8.07;6.43;;;;;;;22.63;20.39;102655.03;5092712;28;20437;-89
2023/03/01 11:11:18;;;;;;;8.65;5.85;;;;;;;23.25;18.74;102652.88;5086549;28;20476;-88
2023/03/01 11:14:07;;;;;;;8.40;6.25;;;;;;;23.45;20.05;102648.00;5086418;28;20494;-89
2023/03/01 11:16:36;;;;;;;9.95;7.20;;;;;;;23.53;19.05;102642.97;5065666;28;20077;-89
2023/03/01 11:19:15;;;;;;;8.25;6.57;;;;;;;23.25;20.21;102650.16;5092800;28;20540;-91
2023/03/01 11:22:04;;;;;;;8.70;6.32;;;;;;;23.05;19.04;102643.38;5073854;28;20039;-90
2023/03/01 11:24:35;;;;;;;7.95;7.03;;;;;;;22.64;19.47;102651.34;5067937;28;20051;-89
2023/03/01 11:27:03;;;;;;;7.07;6.00;;;;;;;22.86;19.25;102646.34;5074232;28;20020;-89
2023/03/01 11:29:38;;;;;;;8.43;6.82;;;;;;;22.31;19.82;102639.00;5073936;28;20103;-89